Ormas, Indiana
Current Conditions -  °F | °C
As of 6:54 PM on Sunday 21 Dec 2014 (Local Time) from KFWA Reporting Station
Haze Haze  
Wind Chill: 22°   Ceiling: Unl
Heat Index: 29°   Visibility: 6mi
Dew Point: 25°   Wind: 7mph
Humidity: 85%   Direction: 100°E
Pressure: 30.17"   Gusts: NA
Location:  41.1479°N, 85.4772°W
Report Text: KFWA 212354Z 10006KT 6SM BR SCT230 M02/M04 A3017 RMK AO2 SLP228 T10171039 10022 21017 58002
Loading
Personal Weather Stations






























Interactive Weather Map New forecast layout! Learn more

10-Day Weather Forecast

Advertisements
Track Severe Weather on mobile